Time;durP1;ratioP1;P1;durP2;ratioP2;P2;SDS_P1;SDS_P2;PMS_P1;PMS_P2;Temp;Humidity;BMP_temperature;BMP_pressure;BME280_temperature;BME280_humidity;BME280_pressure;Samples;Min_cycle;Max_cycle;Signal;HPM_P1;HPM_P2
2022/11/28 00:02:21;;;;;;;31.55;20.30;;;;;;;5.30;91.83;102007.23;1795260;80;20954;-89
2022/11/28 00:04:50;;;;;;;36.28;23.65;;;;;;;5.31;91.72;102010.23;1795194;80;21361;-88
2022/11/28 00:07:17;;;;;;;40.92;24.27;;;;;;;5.32;91.73;102010.67;1795148;79;20892;-87
2022/11/28 00:09:43;;;;;;;39.15;24.40;;;;;;;5.34;91.81;102010.66;1795246;80;20907;-87
2022/11/28 00:12:10;;;;;;;35.65;24.37;;;;;;;5.35;91.64;102014.52;1795258;79;21067;-88
2022/11/28 00:14:37;;;;;;;40.65;25.50;;;;;;;5.36;91.63;102007.59;1795090;79;21033;-87
2022/11/28 00:17:06;;;;;;;38.10;24.40;;;;;;;5.36;91.38;102013.65;1795124;79;21318;-88
2022/11/28 00:19:34;;;;;;;39.83;22.85;;;;;;;5.34;91.25;102015.41;1795170;79;21487;-87
2022/11/28 00:22:01;;;;;;;32.95;22.80;;;;;;;5.31;91.19;102016.73;1795305;79;20939;-86
2022/11/28 00:24:28;;;;;;;38.45;25.05;;;;;;;5.29;91.21;102016.35;1795491;79;21185;-86
2022/11/28 00:26:54;;;;;;;38.35;23.55;;;;;;;5.26;91.25;102021.16;1795857;79;20919;-88
2022/11/28 00:29:22;;;;;;;50.00;26.75;;;;;;;5.22;91.32;102020.78;1795108;79;21440;-87
2022/11/28 00:31:49;;;;;;;46.30;25.82;;;;;;;5.21;91.45;102028.19;1785036;79;20954;-87
2022/11/28 00:34:15;;;;;;;39.15;25.32;;;;;;;5.22;91.58;102029.03;1760383;80;20922;-87
2022/11/28 00:36:45;;;;;;;39.23;24.47;;;;;;;5.23;91.58;102021.67;1760400;81;20879;-87
2022/11/28 00:39:12;;;;;;;43.98;25.30;;;;;;;5.25;91.56;102027.27;1760409;81;20911;-87
2022/11/28 00:41:38;;;;;;;42.70;25.80;;;;;;;5.26;91.59;102030.27;1760574;81;21514;-87
2022/11/28 00:44:08;;;;;;;44.08;27.07;;;;;;;5.26;91.65;102022.47;1760427;81;20895;-87
2022/11/28 00:46:34;;;;;;;48.02;27.37;;;;;;;5.27;91.52;102024.20;1760803;81;21429;-88
2022/11/28 00:49:02;;;;;;;46.40;26.60;;;;;;;5.26;91.41;102019.02;1760498;80;20898;-88
2022/11/28 00:51:31;;;;;;;43.60;25.15;;;;;;;5.23;91.43;102016.02;1760226;81;20906;-87
2022/11/28 00:54:02;;;;;;;47.25;28.35;;;;;;;5.24;91.44;102018.17;1760404;81;20882;-87
2022/11/28 00:56:32;;;;;;;44.67;27.30;;;;;;;5.23;91.37;102023.83;1760487;81;20922;-86
2022/11/28 00:58:59;;;;;;;54.30;30.30;;;;;;;5.21;91.47;102022.13;1760564;81;20942;-88
2022/11/28 01:01:38;;;;;;;46.37;27.67;;;;;;;5.18;91.38;102025.19;1760597;81;21127;-87
2022/11/28 01:04:07;;;;;;;45.73;28.70;;;;;;;5.16;91.39;102017.00;1760531;81;20835;-87
2022/11/28 01:06:38;;;;;;;49.53;27.60;;;;;;;5.11;91.42;102024.88;1760470;81;20867;-87
2022/11/28 01:09:09;;;;;;;50.43;28.85;;;;;;;5.07;91.47;102024.91;1760471;81;20894;-87
2022/11/28 01:11:38;;;;;;;46.15;28.05;;;;;;;5.05;91.73;102028.86;1760378;81;20915;-87
2022/11/28 01:14:07;;;;;;;48.30;28.95;;;;;;;5.04;91.73;102033.62;1760446;81;21374;-87
2022/11/28 01:16:34;;;;;;;50.43;28.50;;;;;;;5.04;91.81;102032.31;1760325;81;20883;-88
2022/11/28 01:19:02;;;;;;;50.67;28.80;;;;;;;5.06;92.11;102026.66;1760394;81;20970;-87
2022/11/28 01:21:28;;;;;;;49.30;31.57;;;;;;;5.09;92.12;102022.73;1760478;81;20982;-87
2022/11/28 01:23:55;;;;;;;53.42;30.97;;;;;;;5.11;92.14;102025.29;1760513;81;21308;-87
2022/11/28 01:26:24;;;;;;;45.15;28.00;;;;;;;5.15;92.18;102023.92;1760494;80;21074;-87
2022/11/28 01:28:51;;;;;;;48.65;28.92;;;;;;;5.19;92.08;102024.75;1760536;80;21057;-87
2022/11/28 01:31:21;;;;;;;48.48;28.38;;;;;;;5.20;92.01;102022.55;1760778;81;20930;-85
2022/11/28 01:33:48;;;;;;;51.53;28.75;;;;;;;5.22;92.05;102027.73;1759423;79;20962;-87
2022/11/28 01:36:15;;;;;;;51.23;27.45;;;;;;;5.25;92.02;102023.81;1760338;80;20903;-86
2022/11/28 01:38:41;;;;;;;44.33;26.07;;;;;;;5.29;91.89;102025.45;1760315;81;21388;-87
2022/11/28 01:41:08;;;;;;;41.55;24.95;;;;;;;5.29;91.81;102026.34;1760305;80;20974;-87
2022/11/28 01:43:35;;;;;;;45.28;27.37;;;;;;;5.31;91.75;102027.14;1760455;80;20902;-86
2022/11/28 01:46:03;;;;;;;44.50;26.17;;;;;;;5.32;91.69;102034.08;1760377;81;20918;-88
2022/11/28 01:48:37;;;;;;;48.50;26.05;;;;;;;5.35;91.75;102031.42;1760539;81;20922;-86
2022/11/28 01:51:06;;;;;;;51.45;26.70;;;;;;;5.38;91.92;102026.19;1760557;81;23148;-85
2022/11/28 01:53:36;;;;;;;47.45;25.05;;;;;;;5.44;91.74;102027.81;1760683;80;21403;-87
2022/11/28 01:56:13;;;;;;;43.78;26.23;;;;;;;5.46;91.43;102026.50;1760643;81;20950;-86
2022/11/28 01:58:42;;;;;;;42.67;25.75;;;;;;;5.44;91.18;102030.88;1759062;81;20930;-86
2022/11/28 02:01:08;;;;;;;47.40;26.65;;;;;;;5.42;91.20;102024.83;1760571;81;21461;-87
2022/11/28 02:03:42;;;;;;;47.60;29.23;;;;;;;5.39;91.06;102032.25;1760497;80;21049;-87
2022/11/28 02:06:13;;;;;;;51.28;27.55;;;;;;;5.38;91.33;102032.70;1760477;81;20914;-88
2022/11/28 02:08:39;;;;;;;49.53;27.52;;;;;;;5.41;91.45;102031.78;1760394;80;20938;-88
2022/11/28 02:11:34;;;;;;;50.73;27.60;;;;;;;5.44;91.33;102034.32;1760376;81;20907;-88
2022/11/28 02:14:17;;;;;;;;;;;;;;;5.43;91.05;102032.63;1763120;81;20891;-88
2022/11/28 02:17:26;;;;;;;52.70;28.12;;;;;;;5.39;91.02;102028.34;1759751;81;21162;-87
2022/11/28 02:20:01;;;;;;;53.58;27.75;;;;;;;5.35;91.02;102026.67;1760487;81;20962;-87
2022/11/28 02:22:40;;;;;;;50.50;27.80;;;;;;;5.29;91.08;102031.54;1760536;81;20946;-87
2022/11/28 02:25:42;;;;;;;57.55;29.87;;;;;;;5.25;91.12;102029.86;1760724;81;21408;-89
2022/11/28 02:28:37;;;;;;;55.05;29.00;;;;;;;5.20;91.15;102031.66;1760455;81;21033;-87
2022/11/28 02:31:41;;;;;;;51.00;28.67;;;;;;;5.15;91.51;102036.07;1760595;81;20979;-88
2022/11/28 02:34:14;;;;;;;48.52;29.18;;;;;;;5.18;91.82;102032.14;1789229;79;21009;-88
2022/11/28 02:36:54;;;;;;;45.78;26.10;;;;;;;5.20;91.83;102034.25;1787692;80;20971;-88
2022/11/28 02:39:44;;;;;;;51.50;28.27;;;;;;;5.20;91.76;102032.95;1789839;79;20959;-88
2022/11/28 02:42:19;;;;;;;52.00;27.75;;;;;;;5.21;91.85;102030.78;1790399;79;21357;-88
2022/11/28 02:45:18;;;;;;;51.30;28.20;;;;;;;5.21;91.89;102029.48;1791004;79;21094;-88
2022/11/28 02:48:00;;;;;;;48.92;27.77;;;;;;;5.22;91.84;102028.59;1791164;79;20919;-85
2022/11/28 02:50:35;;;;;;;49.35;29.10;;;;;;;5.23;91.93;102022.52;1789388;80;20904;-87
2022/11/28 02:53:13;;;;;;;49.03;26.42;;;;;;;5.25;91.93;102027.27;1789567;79;20900;-87
2022/11/28 02:55:40;;;;;;;47.98;28.05;;;;;;;5.26;91.88;102026.37;1789216;80;20911;-88
2022/11/28 02:58:06;;;;;;;46.63;26.05;;;;;;;5.25;91.75;102027.27;1790287;80;21707;-87
2022/11/28 03:00:36;;;;;;;48.55;26.33;;;;;;;5.24;91.74;102020.77;1791648;79;20848;-87
2022/11/28 03:03:35;;;;;;;48.20;26.85;;;;;;;5.24;91.68;102022.08;1791357;79;21448;-86
2022/11/28 03:06:29;;;;;;;46.45;27.17;;;;;;;5.24;91.82;102025.98;1790908;79;21021;-87
2022/11/28 03:09:31;;;;;;;48.00;28.07;;;;;;;5.24;91.75;102032.03;1787359;80;20910;-85
2022/11/28 03:12:40;;;;;;;53.70;27.93;;;;;;;5.25;91.86;102029.86;1790546;80;20976;-84
2022/11/28 03:15:07;;;;;;;50.08;28.05;;;;;;;5.25;91.74;102027.71;1790022;80;20923;-87
2022/11/28 03:18:02;;;;;;;51.63;27.80;;;;;;;5.26;91.88;102035.92;1789668;80;20896;-88
2022/11/28 03:20:44;;;;;;;;;;;;;;;5.28;91.96;102040.20;1792193;80;20994;-87
2022/11/28 03:23:28;;;;;;;59.10;30.43;;;;;;;5.30;92.01;102041.05;1788630;80;20068;-88
2022/11/28 03:26:02;;;;;;;56.60;31.45;;;;;;;5.33;92.23;102040.13;1784830;79;21424;-89
2022/11/28 03:28:44;;;;;;;57.15;30.77;;;;;;;5.39;92.42;102043.50;1789374;79;20887;-88
2022/11/28 03:31:14;;;;;;;56.42;33.48;;;;;;;5.44;92.31;102047.33;1789379;80;20975;-87
2022/11/28 03:33:49;;;;;;;58.70;32.03;;;;;;;5.47;92.08;102043.81;1789167;79;20919;-87
2022/11/28 03:36:22;;;;;;;54.90;32.80;;;;;;;5.46;91.82;102050.77;1789650;80;20852;-87
2022/11/28 03:38:53;;;;;;;56.48;33.05;;;;;;;5.46;91.85;102055.97;1789055;80;21145;-88
2022/11/28 03:41:31;;;;;;;54.53;32.60;;;;;;;5.47;91.88;102055.52;1789493;80;20872;-87
2022/11/28 03:43:58;;;;;;;64.82;37.10;;;;;;;5.47;91.82;102055.52;1789001;79;20962;-84
2022/11/28 03:46:33;;;;;;;66.95;35.92;;;;;;;5.46;91.92;102057.27;1789424;80;20884;-90
2022/11/28 03:48:59;;;;;;;54.90;34.38;;;;;;;5.47;91.91;102061.61;1789433;79;20935;-87
2022/11/28 03:51:43;;;;;;;58.17;36.45;;;;;;;5.44;91.78;102053.83;1789548;80;21075;-88
2022/11/28 03:54:36;;;;;;;58.33;36.63;;;;;;;5.42;91.96;102054.75;1789571;79;20892;-86
2022/11/28 03:57:23;;;;;;;55.65;34.95;;;;;;;5.42;92.03;102053.45;1789355;79;20959;-88
2022/11/28 03:59:52;;;;;;;53.98;32.98;;;;;;;5.39;92.02;102055.20;1789713;80;20895;-88
2022/11/28 04:02:27;;;;;;;55.25;33.85;;;;;;;5.36;92.11;102056.56;1789626;80;20978;-88
2022/11/28 04:05:28;;;;;;;59.33;34.13;;;;;;;5.34;92.25;102054.88;1753206;80;21830;-87
2022/11/28 04:08:08;;;;;;;57.23;33.53;;;;;;;5.30;92.42;102057.95;1789676;80;20923;-86
2022/11/28 04:11:05;;;;;;;57.43;34.63;;;;;;;5.31;92.67;102061.41;1789542;79;20903;-86
2022/11/28 04:13:54;;;;;;;56.02;35.03;;;;;;;5.31;92.75;102062.26;1789529;79;20970;-87
2022/11/28 04:16:39;;;;;;;57.05;33.73;;;;;;;5.27;92.77;102056.71;1789499;79;20887;-87
2022/11/28 04:19:24;;;;;;;51.68;32.55;;;;;;;5.27;93.03;102050.63;1789719;79;21148;-87
2022/11/28 04:21:58;;;;;;;50.08;30.77;;;;;;;5.23;93.09;102053.73;1760538;80;20927;-87
2022/11/28 04:24:38;;;;;;;50.92;32.63;;;;;;;5.22;93.23;102053.75;1789809;80;20903;-87
2022/11/28 04:27:07;;;;;;;51.13;32.33;;;;;;;5.21;93.44;102059.84;1789497;79;21507;-87
2022/11/28 04:29:39;;;;;;;53.35;32.67;;;;;;;5.21;93.62;102054.19;1789727;80;20927;-87
2022/11/28 04:32:06;;;;;;;46.83;30.55;;;;;;;5.24;93.85;102060.64;1789377;79;21079;-87
2022/11/28 04:34:33;;;;;;;51.85;31.17;;;;;;;5.23;93.74;102065.44;1789370;79;20884;-87
2022/11/28 04:37:00;;;;;;;50.33;30.43;;;;;;;5.22;93.81;102062.39;1789519;79;20927;-88
2022/11/28 04:39:27;;;;;;;57.88;35.58;;;;;;;5.20;93.95;102057.66;1789504;80;20883;-88
2022/11/28 04:42:07;;;;;;;53.92;32.80;;;;;;;5.21;94.11;102063.30;1789503;80;20967;-88
2022/11/28 04:44:55;;;;;;;53.63;33.15;;;;;;;5.23;94.38;102056.78;1789512;80;21213;-88
2022/11/28 04:47:23;;;;;;;60.60;31.75;;;;;;;5.24;94.38;102059.78;1789848;80;20884;-87
2022/11/28 04:49:51;;;;;;;50.52;29.90;;;;;;;5.25;94.40;102066.27;1789755;79;20955;-89
2022/11/28 04:52:43;;;;;;;52.60;30.20;;;;;;;5.25;94.42;102062.38;1789771;80;21330;-87
2022/11/28 04:55:18;;;;;;;56.30;30.68;;;;;;;5.23;94.48;102057.63;1787798;80;21456;-89
2022/11/28 04:57:49;;;;;;;55.43;31.02;;;;;;;5.20;94.48;102062.86;1789363;79;21213;-87
2022/11/28 05:00:18;;;;;;;55.38;32.90;;;;;;;5.20;94.73;102070.66;1789539;80;20923;-88
2022/11/28 05:02:46;;;;;;;54.58;30.65;;;;;;;5.23;95.04;102061.53;1789552;79;20892;-87
2022/11/28 05:05:19;;;;;;;55.05;29.48;;;;;;;5.24;94.93;102065.84;1789367;80;20872;-89
2022/11/28 05:07:46;;;;;;;49.00;26.62;;;;;;;5.22;94.97;102061.55;1789697;79;20884;-88
2022/11/28 05:10:13;;;;;;;53.58;30.88;;;;;;;5.21;95.05;102061.14;1789515;79;21077;-87
2022/11/28 05:12:40;;;;;;;49.88;29.25;;;;;;;5.19;95.25;102062.45;1789420;80;20955;-88
2022/11/28 05:15:08;;;;;;;44.80;27.20;;;;;;;5.23;95.58;102068.48;1789830;79;21338;-89
2022/11/28 05:17:35;;;;;;;47.53;26.75;;;;;;;5.26;95.59;102078.38;1789517;79;20840;-88
2022/11/28 05:20:02;;;;;;;32.33;21.62;;;;;;;5.26;95.43;102077.53;1789491;80;20982;-88
2022/11/28 05:22:29;;;;;;;29.85;17.70;;;;;;;5.23;95.41;102086.69;1789584;79;21135;-89
2022/11/28 05:24:55;;;;;;;30.00;17.77;;;;;;;5.18;95.40;102085.45;1789384;79;20922;-87
2022/11/28 05:27:21;;;;;;;26.82;15.23;;;;;;;5.15;95.55;102088.08;1790096;80;21472;-87
2022/11/28 05:29:48;;;;;;;21.97;14.38;;;;;;;5.14;95.63;102090.27;1789712;80;20931;-87
2022/11/28 05:32:15;;;;;;;28.23;17.60;;;;;;;5.10;95.68;102088.59;1789727;79;20880;-88
2022/11/28 05:34:41;;;;;;;25.95;16.95;;;;;;;5.07;95.85;102096.41;1789522;79;21801;-87
2022/11/28 05:37:08;;;;;;;21.75;15.00;;;;;;;5.03;95.95;102100.81;1789446;79;20971;-88
2022/11/28 05:39:35;;;;;;;24.18;14.43;;;;;;;5.00;96.18;102107.33;1789552;80;20852;-87
2022/11/28 05:42:02;;;;;;;24.05;16.50;;;;;;;4.95;96.17;102102.64;1789960;80;20955;-89
2022/11/28 05:44:28;;;;;;;25.08;17.10;;;;;;;4.91;96.34;102110.05;1790157;80;21010;-86
2022/11/28 05:46:55;;;;;;;30.37;18.20;;;;;;;4.88;96.36;102108.36;1790385;80;21076;-89
2022/11/28 05:49:24;;;;;;;22.73;14.63;;;;;;;4.88;96.43;102112.25;1790614;80;20926;-89
2022/11/28 05:51:52;;;;;;;18.57;13.10;;;;;;;4.88;96.38;102120.05;1790665;80;20993;-86
2022/11/28 05:54:20;;;;;;;17.75;12.07;;;;;;;4.87;96.24;102122.24;1790654;80;20892;-85
2022/11/28 05:56:46;;;;;;;17.35;12.53;;;;;;;4.86;96.07;102122.25;1789626;80;20880;-87
2022/11/28 05:59:14;;;;;;;21.50;16.60;;;;;;;4.83;95.77;102123.60;1789827;79;21226;-88
2022/11/28 06:01:40;;;;;;;26.62;18.52;;;;;;;4.80;95.70;102123.17;1789604;80;21061;-86
2022/11/28 21:02:02;;;;;;;20.05;14.35;;;;;;;1.91;84.26;102307.64;1803932;78;23895;-88
2022/11/28 21:04:43;;;;;;;18.05;13.60;;;;;;;1.88;84.14;102302.03;1718503;82;20942;-88
2022/11/28 21:07:18;;;;;;;18.48;12.60;;;;;;;1.86;84.19;102308.48;1698213;82;22157;-88
2022/11/28 21:09:58;;;;;;;14.53;11.33;;;;;;;1.84;84.07;102300.28;1711807;82;21062;-87
2022/11/28 21:12:22;;;;;;;16.57;12.00;;;;;;;1.81;84.25;102309.34;1713643;83;21415;-87
2022/11/28 21:14:48;;;;;;;18.62;11.40;;;;;;;1.78;83.89;102304.14;1776103;79;21452;-88
2022/11/28 21:17:15;;;;;;;17.87;13.62;;;;;;;1.74;83.78;102311.48;1779797;80;20977;-87
2022/11/28 21:19:42;;;;;;;19.98;13.10;;;;;;;1.69;83.58;102310.17;1782496;80;21116;-87
2022/11/28 21:22:09;;;;;;;20.30;13.70;;;;;;;1.64;83.70;102310.12;1781473;80;20914;-88
2022/11/28 21:24:35;;;;;;;22.42;14.75;;;;;;;1.61;83.69;102310.55;1781292;80;20900;-86
2022/11/28 21:27:02;;;;;;;22.02;14.28;;;;;;;1.57;83.71;102301.91;1780918;79;20974;-88
2022/11/28 21:29:28;;;;;;;18.67;14.40;;;;;;;1.56;83.79;102298.05;1782097;80;20922;-85
2022/11/28 21:31:55;;;;;;;22.45;14.15;;;;;;;1.54;83.82;102292.86;1780164;79;21233;-88
2022/11/28 21:34:22;;;;;;;19.60;13.98;;;;;;;1.53;83.84;102303.18;1780267;79;21498;-88
2022/11/28 21:40:35;;;;;;;21.57;14.35;;;;;;;1.59;84.04;102291.14;1781280;80;20903;-87
2022/11/28 21:43:01;;;;;;;21.60;13.98;;;;;;;1.62;83.86;102297.64;1783461;80;20916;-88
2022/11/28 21:45:28;;;;;;;23.80;15.10;;;;;;;1.66;83.75;102294.19;1781624;80;21147;-86
2022/11/28 21:47:55;;;;;;;21.07;14.50;;;;;;;1.70;83.66;102296.80;1781711;80;20899;-88
2022/11/28 21:50:22;;;;;;;25.48;14.60;;;;;;;1.70;83.45;102300.24;1780687;79;21002;-86
2022/11/28 21:52:49;;;;;;;23.32;13.55;;;;;;;1.71;83.39;102301.10;1780431;80;20950;-86
2022/11/28 21:55:16;;;;;;;16.97;12.00;;;;;;;1.74;83.42;102315.36;1780803;80;20958;-88
2022/11/28 21:57:42;;;;;;;18.48;12.37;;;;;;;1.76;83.18;102317.52;1779270;79;21106;-86
2022/11/28 22:00:10;;;;;;;19.92;11.90;;;;;;;1.73;83.00;102308.00;1782379;80;20939;-87
2022/11/28 22:02:39;;;;;;;19.50;13.03;;;;;;;1.71;83.00;102314.03;1782735;79;21029;-88
2022/11/28 22:05:06;;;;;;;16.95;11.35;;;;;;;1.69;82.66;102308.88;1750640;80;21648;-87
2022/11/28 22:07:35;;;;;;;16.65;10.43;;;;;;;1.69;82.80;102320.52;1778426;80;20990;-89
2022/11/28 22:10:02;;;;;;;17.07;12.15;;;;;;;1.70;82.66;102313.61;1779640;80;21153;-89
2022/11/28 22:12:31;;;;;;;22.58;12.10;;;;;;;1.68;82.68;102321.35;1782439;80;21374;-88
2022/11/28 22:14:58;;;;;;;15.40;10.13;;;;;;;1.65;82.56;102300.23;1783596;80;20989;-86
2022/11/28 22:17:25;;;;;;;17.85;11.40;;;;;;;1.62;82.39;102309.68;1783205;79;20978;-85
2022/11/28 22:19:52;;;;;;;17.00;11.40;;;;;;;1.59;82.47;102288.99;1781648;80;20851;-84
2022/11/28 22:22:19;;;;;;;18.07;11.45;;;;;;;1.58;82.72;102290.72;1778894;79;21201;-87
2022/11/28 22:24:45;;;;;;;17.82;12.10;;;;;;;1.60;82.58;102290.70;1779992;80;21469;-89
2022/11/28 22:27:12;;;;;;;17.55;11.75;;;;;;;1.59;82.55;102293.73;1773153;80;20966;-88
2022/11/28 22:29:38;;;;;;;16.73;11.05;;;;;;;1.57;82.61;102286.39;1782822;80;20955;-88
2022/11/28 22:32:08;;;;;;;14.18;10.78;;;;;;;1.57;82.75;102279.92;1779415;79;21021;-88
2022/11/28 22:34:36;;;;;;;16.27;11.03;;;;;;;1.62;82.66;102277.36;1778963;80;22073;-88
2022/11/28 22:37:03;;;;;;;22.05;12.30;;;;;;;1.63;82.75;102277.81;1780803;79;20997;-88
2022/11/28 22:39:30;;;;;;;23.27;12.88;;;;;;;1.65;82.85;102287.30;1780140;80;20863;-88
2022/11/28 22:41:58;;;;;;;19.67;11.48;;;;;;;1.70;82.61;102284.73;1780857;79;20903;-86
2022/11/28 22:44:25;;;;;;;14.07;10.15;;;;;;;1.72;82.00;102289.48;1783839;79;20902;-84
2022/11/28 22:46:52;;;;;;;19.45;11.12;;;;;;;1.67;81.98;102288.61;1782969;79;21220;-88
2022/11/28 22:49:19;;;;;;;17.25;10.40;;;;;;;1.64;81.87;102287.28;1778371;79;20903;-87
2022/11/28 22:51:46;;;;;;;17.45;11.70;;;;;;;1.60;81.99;102298.47;1781407;80;20974;-85
2022/11/28 22:54:13;;;;;;;22.35;11.38;;;;;;;1.57;82.11;102286.39;1783735;80;20950;-83
2022/11/28 22:56:40;;;;;;;17.27;10.32;;;;;;;1.56;82.07;102287.70;1781138;79;20994;-85
2022/11/28 22:59:10;;;;;;;17.30;11.50;;;;;;;1.55;82.20;102281.64;1741289;80;21528;-85
2022/11/28 23:01:37;;;;;;;16.40;10.25;;;;;;;1.56;82.14;102291.14;1783952;79;20935;-84
2022/11/28 23:04:04;;;;;;;17.25;11.15;;;;;;;1.54;82.13;102286.39;1782770;80;20978;-87
2022/11/28 23:06:33;;;;;;;17.32;11.88;;;;;;;1.50;82.17;102288.95;1757883;80;20875;-84
2022/11/28 23:09:03;;;;;;;19.60;10.43;;;;;;;1.48;82.18;102282.48;1783535;80;21360;-89
2022/11/28 23:11:31;;;;;;;19.15;11.48;;;;;;;1.49;82.40;102280.75;1782019;80;20868;-88
2022/11/28 23:14:00;;;;;;;21.05;11.28;;;;;;;1.50;82.67;102288.52;1779413;79;21306;-89
2022/11/28 23:16:34;;;;;;;17.23;10.95;;;;;;;1.55;82.74;102275.17;1779791;79;20953;-87
2022/11/28 23:19:05;;;;;;;17.98;11.53;;;;;;;1.59;82.60;102284.68;1781235;80;20938;-88
2022/11/28 23:21:34;;;;;;;14.38;10.45;;;;;;;1.59;82.50;102276.92;1780606;80;20843;-88
2022/11/28 23:24:03;;;;;;;18.57;11.33;;;;;;;1.66;82.28;102294.19;1781606;80;21522;-88
2022/11/28 23:26:32;;;;;;;14.93;9.63;;;;;;;1.64;82.10;102292.02;1779816;80;20918;-87
2022/11/28 23:29:00;;;;;;;15.58;11.78;;;;;;;1.67;82.16;102292.48;1779990;79;21069;-86
2022/11/28 23:31:29;;;;;;;18.70;11.28;;;;;;;1.69;81.85;102300.23;1779854;80;21006;-87
2022/11/28 23:33:57;;;;;;;16.55;10.95;;;;;;;1.66;81.75;102287.72;1779965;80;20891;-87
2022/11/28 23:36:30;;;;;;;15.70;11.00;;;;;;;1.67;81.64;102284.73;1781319;80;21227;-87
2022/11/28 23:39:00;;;;;;;18.82;11.08;;;;;;;1.65;81.65;102285.15;1780668;79;20883;-86
2022/11/28 23:41:28;;;;;;;21.97;12.50;;;;;;;1.64;81.90;102275.21;1780183;80;21336;-87
2022/11/28 23:43:54;;;;;;;16.93;10.03;;;;;;;1.69;81.89;102270.08;1783581;80;20871;-88
2022/11/28 23:46:21;;;;;;;15.70;10.53;;;;;;;1.68;81.54;102277.83;1780666;79;21001;-86
2022/11/28 23:48:48;;;;;;;18.12;10.32;;;;;;;1.60;81.50;102275.20;1785124;79;21088;-86
2022/11/28 23:51:16;;;;;;;16.70;10.88;;;;;;;1.55;81.91;102262.25;1780533;80;21092;-87
2022/11/28 23:53:43;;;;;;;16.42;10.05;;;;;;;1.57;82.02;102270.02;1778284;80;21025;-88
2022/11/28 23:56:16;;;;;;;18.57;10.70;;;;;;;1.60;81.96;102267.44;1780301;79;20958;-87
2022/11/28 23:58:42;;;;;;;20.82;12.43;;;;;;;1.64;81.95;102254.96;1777930;80;20986;-87
